Time;durP1;ratioP1;P1;durP2;ratioP2;P2;SDS_P1;SDS_P2;PMS_P1;PMS_P2;Temp;Humidity;BMP_temperature;BMP_pressure;BME280_temperature;BME280_humidity;BME280_pressure;Samples;Min_cycle;Max_cycle;Signal;HPM_P1;HPM_P2
2022/01/16 00:05:20;;;;;;;4.17;2.89;;;;;;;18.36;44.75;101269.47;;;;-51
2022/01/16 00:08:20;;;;;;;4.12;3.03;;;;;;;18.34;44.77;101278.63;;;;-52
2022/01/16 00:11:20;;;;;;;3.15;2.85;;;;;;;18.32;44.76;101282.11;;;;-51
2022/01/16 00:14:20;;;;;;;3.00;2.77;;;;;;;18.30;44.77;101299.27;;;;-49
2022/01/16 00:17:23;;;;;;;3.76;2.95;;;;;;;18.27;44.78;101296.05;;;;-48
2022/01/16 00:20:20;;;;;;;3.13;2.83;;;;;;;18.26;44.83;101304.60;;;;-52
2022/01/16 00:23:24;;;;;;;3.25;2.95;;;;;;;18.25;44.83;101311.89;;;;-51
2022/01/16 00:26:20;;;;;;;3.32;3.02;;;;;;;18.22;44.86;101289.36;;;;-48
2022/01/16 00:29:20;;;;;;;3.19;2.76;;;;;;;18.21;44.88;101275.94;;;;-51
2022/01/16 00:32:20;;;;;;;3.17;2.87;;;;;;;18.19;44.82;101262.73;;;;-51
2022/01/16 00:35:20;;;;;;;3.28;2.89;;;;;;;18.17;44.86;101256.60;;;;-50
2022/01/16 00:38:20;;;;;;;3.17;2.87;;;;;;;18.15;44.86;101261.34;;;;-51
2022/01/16 00:41:20;;;;;;;3.45;3.14;;;;;;;18.14;44.87;101249.33;;;;-48
2022/01/16 00:44:21;;;;;;;3.29;2.99;;;;;;;18.12;44.95;101264.77;;;;-49
2022/01/16 00:47:20;;;;;;;3.26;2.96;;;;;;;18.11;44.88;101275.02;;;;-52
2022/01/16 00:50:20;;;;;;;3.30;3.00;;;;;;;18.09;44.89;101255.27;;;;-51
2022/01/16 00:53:20;;;;;;;3.13;2.81;;;;;;;18.08;44.89;101274.23;;;;-52
2022/01/16 00:56:21;;;;;;;3.27;2.97;;;;;;;18.07;44.99;101276.55;;;;-52
2022/01/16 00:59:20;;;;;;;3.31;3.01;;;;;;;18.05;44.96;101295.31;;;;-51
2022/01/16 01:02:20;;;;;;;3.46;3.16;;;;;;;18.03;44.95;101289.66;;;;-51
2022/01/16 01:05:20;;;;;;;3.37;3.07;;;;;;;18.02;44.96;101297.52;;;;-51
2022/01/16 01:08:20;;;;;;;3.06;2.81;;;;;;;18.00;44.99;101293.01;;;;-51
2022/01/16 01:11:24;;;;;;;3.23;2.92;;;;;;;17.99;44.96;101299.86;;;;-50
2022/01/16 01:14:25;;;;;;;3.46;3.16;;;;;;;17.97;44.98;101306.25;;;;-51
2022/01/16 01:17:24;;;;;;;3.35;3.05;;;;;;;17.95;45.01;101299.59;;;;-50
2022/01/16 01:20:20;;;;;;;3.57;3.27;;;;;;;17.94;44.99;101294.07;;;;-48
2022/01/16 01:23:20;;;;;;;3.51;3.20;;;;;;;17.92;45.01;101276.17;;;;-48
2022/01/16 01:26:25;;;;;;;3.75;3.35;;;;;;;17.91;44.99;101226.62;;;;-48
2022/01/16 01:29:21;;;;;;;3.81;3.33;;;;;;;17.91;45.01;101217.05;;;;-49
2022/01/16 01:32:20;;;;;;;3.45;3.15;;;;;;;17.89;44.98;101214.97;;;;-49
2022/01/16 01:35:20;;;;;;;3.37;3.07;;;;;;;17.87;45.01;101207.79;;;;-48
2022/01/16 01:38:20;;;;;;;3.42;3.12;;;;;;;17.86;44.99;101222.41;;;;-49
2022/01/16 01:41:20;;;;;;;3.58;3.28;;;;;;;17.85;45.06;101246.16;;;;-48
2022/01/16 01:53:20;;;;;;;4.71;3.39;;;;;;;17.80;45.03;101264.63;;;;-52
2022/01/16 01:56:21;;;;;;;3.49;3.19;;;;;;;17.79;45.07;101284.00;;;;-53
2022/01/16 01:59:20;;;;;;;3.57;3.26;;;;;;;17.77;45.06;101274.79;;;;-51
2022/01/16 02:02:21;;;;;;;3.77;3.34;;;;;;;17.76;45.06;101280.42;;;;-50
2022/01/16 02:05:20;;;;;;;3.93;3.30;;;;;;;17.75;44.99;101290.45;;;;-50
2022/01/16 02:08:20;;;;;;;3.88;3.50;;;;;;;17.74;45.10;101302.50;;;;-51
2022/01/16 02:11:22;;;;;;;3.97;3.60;;;;;;;17.73;45.20;101303.05;;;;-51
2022/01/16 02:14:31;;;;;;;3.81;3.48;;;;;;;17.72;45.01;101307.14;;;;-51
2022/01/16 02:30:58;;;;;;;3.63;3.33;;;;;;;17.65;45.12;101289.14;;;;-52
2022/01/16 02:36:28;;;;;;;4.05;3.57;;;;;;;17.62;45.04;101279.95;;;;-51
2022/01/16 02:39:21;;;;;;;3.70;3.31;;;;;;;17.61;45.16;101271.59;;;;-52
2022/01/16 02:42:26;;;;;;;3.91;3.45;;;;;;;17.60;45.16;101268.58;;;;-51
2022/01/16 02:45:29;;;;;;;3.94;3.46;;;;;;;17.60;45.21;101258.61;;;;-51
2022/01/16 02:48:20;;;;;;;4.07;3.54;;;;;;;17.58;45.15;101256.05;;;;-50
2022/01/16 02:51:20;;;;;;;3.56;3.26;;;;;;;17.58;45.20;101252.48;;;;-52
2022/01/16 02:54:20;;;;;;;4.09;3.69;;;;;;;17.55;45.22;101247.52;;;;-52
2022/01/16 02:57:20;;;;;;;4.23;3.76;;;;;;;17.55;45.16;101243.95;;;;-52
2022/01/16 03:00:20;;;;;;;4.19;3.79;;;;;;;17.54;45.12;101243.62;;;;-50
2022/01/16 03:03:20;;;;;;;3.71;3.34;;;;;;;17.54;45.22;101247.42;;;;-50
2022/01/16 03:06:20;;;;;;;3.92;3.51;;;;;;;17.52;45.20;101247.53;;;;-52
2022/01/16 03:09:21;;;;;;;4.05;3.65;;;;;;;17.52;45.23;101253.69;;;;-52
2022/01/16 03:12:20;;;;;;;3.89;3.51;;;;;;;17.52;45.19;101256.94;;;;-52
2022/01/16 03:15:20;;;;;;;3.95;3.48;;;;;;;17.50;45.13;101256.23;;;;-51
2022/01/16 03:24:21;;;;;;;3.83;3.47;;;;;;;17.46;45.13;101242.83;;;;-52
2022/01/16 03:27:20;;;;;;;4.09;3.69;;;;;;;17.45;45.11;101241.86;;;;-50
2022/01/16 03:30:20;;;;;;;4.61;4.13;;;;;;;17.44;45.27;101238.72;;;;-50
2022/01/16 03:33:20;;;;;;;4.06;3.67;;;;;;;17.44;45.28;101244.15;;;;-50
2022/01/16 03:36:20;;;;;;;4.40;3.73;;;;;;;17.42;45.13;101245.00;;;;-50
2022/01/16 03:39:20;;;;;;;3.93;3.53;;;;;;;17.41;45.21;101242.27;;;;-51
2022/01/16 03:42:25;;;;;;;4.01;3.61;;;;;;;17.41;45.16;101236.92;;;;-48
2022/01/16 03:45:20;;;;;;;4.42;3.97;;;;;;;17.39;45.25;101237.11;;;;-50
2022/01/16 03:48:20;;;;;;;3.95;3.54;;;;;;;17.38;45.17;101241.80;;;;-50
2022/01/16 03:51:20;;;;;;;3.91;3.51;;;;;;;17.38;45.16;101243.27;;;;-50
2022/01/16 03:54:20;;;;;;;3.92;3.52;;;;;;;17.37;45.21;101239.59;;;;-51
2022/01/16 03:57:20;;;;;;;3.85;3.47;;;;;;;17.36;45.18;101228.30;;;;-51
2022/01/16 04:00:20;;;;;;;4.01;3.61;;;;;;;17.35;45.20;101227.77;;;;-52
2022/01/16 04:03:20;;;;;;;4.23;3.71;;;;;;;17.34;45.16;101229.21;;;;-53
2022/01/16 04:06:20;;;;;;;3.57;3.27;;;;;;;17.33;45.18;101234.88;;;;-53
2022/01/16 04:09:20;;;;;;;4.11;3.71;;;;;;;17.32;45.22;101236.77;;;;-52
2022/01/16 04:12:23;;;;;;;4.01;3.60;;;;;;;17.31;45.20;101239.19;;;;-50
2022/01/16 04:15:35;;;;;;;4.06;3.66;;;;;;;17.29;45.24;101240.67;;;;-50
2022/01/16 04:18:20;;;;;;;3.83;3.45;;;;;;;17.30;45.21;101247.73;;;;-50
2022/01/16 04:21:20;;;;;;;4.17;3.77;;;;;;;17.28;45.18;101242.08;;;;-50
2022/01/16 04:24:20;;;;;;;4.27;3.86;;;;;;;17.28;45.24;101245.66;;;;-50
2022/01/16 04:27:20;;;;;;;4.06;3.66;;;;;;;17.27;45.25;101254.30;;;;-50
2022/01/16 04:30:20;;;;;;;4.00;3.60;;;;;;;17.27;45.24;101251.06;;;;-52
2022/01/16 04:33:20;;;;;;;4.44;4.04;;;;;;;17.26;45.24;101254.42;;;;-52
2022/01/16 04:36:20;;;;;;;4.02;3.62;;;;;;;17.25;45.18;101256.11;;;;-48
2022/01/16 04:39:21;;;;;;;3.92;3.62;;;;;;;17.24;45.26;101252.91;;;;-48
2022/01/16 04:45:20;;;;;;;3.89;3.51;;;;;;;17.23;45.23;101246.25;;;;-49
2022/01/16 04:48:20;;;;;;;4.01;3.61;;;;;;;17.22;45.12;101239.40;;;;-48
2022/01/16 04:51:20;;;;;;;4.80;3.73;;;;;;;17.21;45.13;101233.47;;;;-49
2022/01/16 04:54:20;;;;;;;3.87;3.55;;;;;;;17.20;45.13;101234.56;;;;-50
2022/01/16 04:57:20;;;;;;;4.26;3.86;;;;;;;17.20;45.20;101245.17;;;;-50
2022/01/16 05:00:20;;;;;;;4.09;3.69;;;;;;;17.19;45.20;101245.81;;;;-50
2022/01/16 05:03:20;;;;;;;3.99;3.59;;;;;;;17.18;45.20;101236.13;;;;-52
2022/01/16 05:06:20;;;;;;;4.01;3.61;;;;;;;17.17;45.24;101237.09;;;;-51
2022/01/16 05:09:20;;;;;;;4.20;3.80;;;;;;;17.16;45.14;101238.45;;;;-51
2022/01/16 05:12:29;;;;;;;4.43;3.99;;;;;;;17.15;45.21;101241.73;;;;-52
2022/01/16 05:18:20;;;;;;;4.37;3.97;;;;;;;17.15;45.25;101238.08;;;;-52
2022/01/16 05:21:20;;;;;;;4.43;4.00;;;;;;;17.13;45.17;101234.55;;;;-49
2022/01/16 05:24:20;;;;;;;4.26;3.79;;;;;;;17.13;45.23;101246.94;;;;-52
2022/01/16 05:27:20;;;;;;;4.39;3.89;;;;;;;17.11;45.16;101242.66;;;;-50
2022/01/16 05:30:20;;;;;;;18.70;9.60;;;;;;;16.96;42.52;101245.08;;;;-50
2022/01/16 05:33:20;;;;;;;16.99;10.61;;;;;;;16.89;42.60;101250.71;;;;-51
2022/01/16 05:36:20;;;;;;;17.57;11.94;;;;;;;16.84;42.15;101253.14;;;;-52
2022/01/16 05:39:20;;;;;;;17.75;12.51;;;;;;;16.78;41.87;101249.20;;;;-49
2022/01/16 05:42:20;;;;;;;17.17;12.82;;;;;;;16.72;41.62;101261.80;;;;-54
2022/01/16 05:45:20;;;;;;;19.49;13.71;;;;;;;16.66;41.26;101269.95;;;;-49
2022/01/16 05:48:20;;;;;;;23.12;13.37;;;;;;;16.69;42.04;101274.43;;;;-51
2022/01/16 05:51:20;;;;;;;19.25;12.53;;;;;;;16.73;42.91;101271.08;;;;-57
2022/01/16 05:54:20;;;;;;;16.11;11.27;;;;;;;16.79;43.18;101275.14;;;;-61
2022/01/16 05:57:20;;;;;;;15.42;10.67;;;;;;;16.84;43.42;101270.45;;;;-60
2022/01/16 06:00:20;;;;;;;14.04;9.99;;;;;;;16.88;43.53;101265.72;;;;-59
2022/01/16 06:03:21;;;;;;;13.25;9.17;;;;;;;16.92;43.57;101270.70;;;;-54
2022/01/16 06:06:20;;;;;;;11.84;8.83;;;;;;;16.97;43.63;101267.52;;;;-49
2022/01/16 06:09:20;;;;;;;10.18;8.37;;;;;;;17.02;43.67;101269.54;;;;-52
2022/01/16 06:12:20;;;;;;;9.98;7.79;;;;;;;17.06;43.62;101267.32;;;;-52
2022/01/16 06:15:20;;;;;;;9.82;8.11;;;;;;;17.11;43.85;101276.92;;;;-55
2022/01/16 06:18:20;;;;;;;11.10;7.61;;;;;;;17.15;44.05;101277.37;;;;-55
2022/01/16 06:21:20;;;;;;;8.96;7.27;;;;;;;17.21;44.15;101280.70;;;;-54
2022/01/16 06:24:20;;;;;;;9.51;7.06;;;;;;;17.25;44.06;101290.70;;;;-52
2022/01/16 06:27:20;;;;;;;9.53;7.09;;;;;;;17.28;44.18;101300.98;;;;-57
2022/01/16 06:30:20;;;;;;;8.89;6.97;;;;;;;17.31;44.12;101309.75;;;;-59
2022/01/16 06:33:20;;;;;;;8.72;6.97;;;;;;;17.36;44.14;101316.03;;;;-55
2022/01/16 06:36:20;;;;;;;8.43;6.47;;;;;;;17.36;44.28;101315.72;;;;-55
2022/01/16 06:39:20;;;;;;;9.69;6.71;;;;;;;17.38;44.22;101305.89;;;;-56
2022/01/16 06:42:20;;;;;;;9.91;6.65;;;;;;;17.41;44.32;101320.41;;;;-55
2022/01/16 06:45:20;;;;;;;8.29;6.60;;;;;;;17.43;44.34;101322.42;;;;-55
2022/01/16 06:48:20;;;;;;;7.05;6.15;;;;;;;17.44;44.37;101324.05;;;;-55
2022/01/16 06:51:20;;;;;;;7.19;6.17;;;;;;;17.45;44.39;101329.61;;;;-52
2022/01/16 06:54:20;;;;;;;7.35;6.43;;;;;;;17.46;44.44;101336.67;;;;-52
2022/01/16 06:57:20;;;;;;;6.90;5.84;;;;;;;17.47;44.46;101329.14;;;;-57
2022/01/16 07:00:20;;;;;;;7.69;6.28;;;;;;;17.48;44.42;101326.77;;;;-55
2022/01/16 07:03:20;;;;;;;7.89;6.09;;;;;;;17.49;44.47;101332.69;;;;-52
2022/01/16 07:06:20;;;;;;;7.47;6.29;;;;;;;17.49;44.49;101342.20;;;;-54
2022/01/16 07:09:20;;;;;;;6.92;5.78;;;;;;;17.50;44.49;101350.89;;;;-55
2022/01/16 07:12:20;;;;;;;7.27;6.37;;;;;;;17.50;44.51;101357.28;;;;-55
2022/01/16 07:15:20;;;;;;;6.95;6.10;;;;;;;17.51;44.53;101366.13;;;;-55
2022/01/16 07:18:20;;;;;;;6.65;5.95;;;;;;;17.50;44.50;101364.66;;;;-56
2022/01/16 07:21:20;;;;;;;7.65;6.50;;;;;;;17.50;44.52;101362.64;;;;-52
2022/01/16 07:24:20;;;;;;;7.22;6.01;;;;;;;17.49;44.47;101374.14;;;;-52
2022/01/16 07:27:20;;;;;;;7.30;6.51;;;;;;;17.49;44.50;101381.27;;;;-52
2022/01/16 07:30:20;;;;;;;7.59;6.41;;;;;;;17.49;44.55;101391.92;;;;-52
2022/01/16 07:33:20;;;;;;;6.79;5.93;;;;;;;17.48;44.59;101391.51;;;;-56
2022/01/16 07:36:20;;;;;;;6.31;5.65;;;;;;;17.48;44.47;101402.61;;;;-54
2022/01/16 07:39:20;;;;;;;6.59;5.89;;;;;;;17.47;44.50;101389.72;;;;-52
2022/01/16 07:42:20;;;;;;;6.45;5.77;;;;;;;17.47;44.46;101390.20;;;;-54
2022/01/16 07:45:20;;;;;;;6.81;5.88;;;;;;;17.46;44.54;101405.72;;;;-55
2022/01/16 07:48:20;;;;;;;6.73;5.99;;;;;;;17.46;44.51;101404.83;;;;-52
2022/01/16 07:51:20;;;;;;;7.01;6.21;;;;;;;17.45;44.47;101402.59;;;;-55
2022/01/16 07:54:21;;;;;;;6.60;5.89;;;;;;;17.44;44.42;101424.21;;;;-55
2022/01/16 07:57:20;;;;;;;6.95;5.91;;;;;;;17.44;44.43;101426.15;;;;-54
2022/01/16 08:00:20;;;;;;;6.93;5.80;;;;;;;17.43;44.53;101421.52;;;;-55
2022/01/16 08:03:20;;;;;;;7.89;5.84;;;;;;;17.42;44.48;101427.96;;;;-54
2022/01/16 08:06:20;;;;;;;6.20;5.60;;;;;;;17.41;44.49;101427.21;;;;-52
2022/01/16 08:09:20;;;;;;;6.51;5.71;;;;;;;17.40;44.50;101429.52;;;;-53
2022/01/16 08:12:20;;;;;;;6.51;5.80;;;;;;;17.40;44.44;101428.78;;;;-52
2022/01/16 08:15:20;;;;;;;6.41;5.77;;;;;;;17.39;44.42;101430.92;;;;-52
2022/01/16 08:18:20;;;;;;;6.70;5.74;;;;;;;17.38;44.44;101427.75;;;;-52
2022/01/16 08:21:20;;;;;;;6.33;5.71;;;;;;;17.38;44.50;101425.00;;;;-57
2022/01/16 08:24:20;;;;;;;6.59;5.92;;;;;;;17.36;44.48;101428.83;;;;-57
2022/01/16 08:27:20;;;;;;;6.35;5.71;;;;;;;17.36;44.50;101438.38;;;;-57
2022/01/16 08:30:20;;;;;;;6.05;5.45;;;;;;;17.35;44.46;101445.82;;;;-58
2022/01/16 08:33:20;;;;;;;6.51;5.51;;;;;;;17.34;44.47;101451.86;;;;-59
2022/01/16 08:36:21;;;;;;;6.50;5.78;;;;;;;17.34;44.40;101462.79;;;;-58
2022/01/16 08:39:20;;;;;;;6.44;5.61;;;;;;;17.33;44.40;101459.20;;;;-58
2022/01/16 08:42:20;;;;;;;6.56;5.89;;;;;;;17.33;44.45;101459.94;;;;-56
2022/01/16 08:45:20;;;;;;;6.43;5.77;;;;;;;17.32;44.38;101459.64;;;;-55
2022/01/16 08:48:21;;;;;;;6.17;5.57;;;;;;;17.31;44.41;101458.50;;;;-55
2022/01/16 08:51:21;;;;;;;6.63;5.68;;;;;;;17.32;44.62;101470.10;;;;-54
2022/01/16 08:54:20;;;;;;;7.76;5.84;;;;;;;17.31;44.44;101466.28;;;;-53
2022/01/16 08:57:20;;;;;;;7.97;5.57;;;;;;;17.33;44.54;101468.77;;;;-54
2022/01/16 09:00:20;;;;;;;6.41;5.77;;;;;;;17.33;44.64;101475.26;;;;-58
2022/01/16 09:03:20;;;;;;;6.13;5.45;;;;;;;17.36;44.61;101477.59;;;;-58
2022/01/16 09:06:21;;;;;;;6.94;5.46;;;;;;;17.39;44.63;101479.42;;;;-60
2022/01/16 09:09:20;;;;;;;6.61;5.71;;;;;;;17.42;44.58;101484.92;;;;-61
2022/01/16 09:12:20;;;;;;;6.55;5.43;;;;;;;17.48;44.55;101491.27;;;;-60
2022/01/16 09:15:20;;;;;;;5.73;5.17;;;;;;;17.53;44.58;101492.13;;;;-58
2022/01/16 09:18:20;;;;;;;6.25;5.43;;;;;;;17.59;44.58;101502.54;;;;-54
2022/01/16 09:21:20;;;;;;;6.27;5.45;;;;;;;17.62;44.61;101503.55;;;;-55
2022/01/16 09:24:20;;;;;;;6.26;5.28;;;;;;;17.65;44.57;101518.30;;;;-53
2022/01/16 09:27:20;;;;;;;7.39;5.37;;;;;;;17.72;44.73;101517.59;;;;-59
2022/01/16 09:30:20;;;;;;;7.14;5.41;;;;;;;17.77;45.36;101519.95;;;;-56
2022/01/16 09:33:20;;;;;;;6.07;5.47;;;;;;;17.82;45.47;101522.77;;;;-54
2022/01/16 09:36:20;;;;;;;7.85;5.10;;;;;;;17.86;45.44;101517.49;;;;-54
2022/01/16 09:39:20;;;;;;;6.67;5.32;;;;;;;17.93;45.29;101517.72;;;;-58
2022/01/16 09:42:20;;;;;;;5.76;5.15;;;;;;;17.96;45.37;101519.66;;;;-56
2022/01/16 09:45:20;;;;;;;5.83;5.16;;;;;;;18.03;45.33;101523.59;;;;-56
2022/01/16 09:48:20;;;;;;;7.40;5.35;;;;;;;18.08;45.33;101535.52;;;;-54
2022/01/16 09:51:20;;;;;;;5.73;5.11;;;;;;;18.14;45.37;101536.75;;;;-55
2022/01/16 09:54:20;;;;;;;8.55;5.32;;;;;;;18.17;45.51;101548.02;;;;-51
2022/01/16 09:57:20;;;;;;;6.16;5.46;;;;;;;18.22;45.63;101545.38;;;;-51
2022/01/16 10:00:20;;;;;;;6.74;5.35;;;;;;;18.25;45.56;101546.14;;;;-53
2022/01/16 10:03:20;;;;;;;5.76;5.20;;;;;;;18.28;45.76;101556.84;;;;-52
2022/01/16 10:06:20;;;;;;;6.37;5.41;;;;;;;18.32;45.41;101559.55;;;;-51
2022/01/16 10:09:20;;;;;;;6.14;5.07;;;;;;;18.37;45.45;101566.38;;;;-58
2022/01/16 10:12:20;;;;;;;7.05;5.19;;;;;;;18.40;45.45;101559.14;;;;-51
2022/01/16 10:15:20;;;;;;;6.67;5.25;;;;;;;18.42;45.41;101562.20;;;;-60
2022/01/16 10:18:20;;;;;;;5.67;5.02;;;;;;;18.45;45.41;101566.69;;;;-54
2022/01/16 10:21:20;;;;;;;5.82;4.99;;;;;;;18.50;45.41;101569.81;;;;-56
2022/01/16 10:24:20;;;;;;;5.99;4.93;;;;;;;18.53;45.51;101566.84;;;;-56
2022/01/16 10:27:21;;;;;;;8.69;5.41;;;;;;;18.54;45.14;101569.53;;;;-51
2022/01/16 10:30:22;;;;;;;11.09;7.08;;;;;;;18.54;44.44;101565.95;;;;-55
2022/01/16 10:33:21;;;;;;;12.43;6.15;;;;;;;18.57;44.80;101564.23;;;;-57
2022/01/16 10:36:20;;;;;;;8.91;6.03;;;;;;;18.60;44.86;101554.84;;;;-57
2022/01/16 10:39:20;;;;;;;8.01;5.91;;;;;;;18.63;44.99;101540.95;;;;-59
2022/01/16 10:42:20;;;;;;;8.19;5.47;;;;;;;18.65;45.06;101536.30;;;;-52
2022/01/16 10:45:20;;;;;;;10.09;5.81;;;;;;;18.69;44.94;101534.77;;;;-53
2022/01/16 10:48:20;;;;;;;7.61;5.42;;;;;;;18.69;44.67;101539.81;;;;-54
2022/01/16 10:51:20;;;;;;;6.20;5.13;;;;;;;18.68;44.64;101542.48;;;;-54
2022/01/16 10:54:20;;;;;;;6.64;5.49;;;;;;;18.69;44.63;101544.28;;;;-54
2022/01/16 10:57:20;;;;;;;6.81;5.32;;;;;;;18.70;44.60;101546.34;;;;-54
2022/01/16 11:00:21;;;;;;;8.48;5.42;;;;;;;18.72;44.59;101544.58;;;;-54
2022/01/16 11:03:20;;;;;;;8.60;5.59;;;;;;;18.73;44.60;101549.01;;;;-54
2022/01/16 11:06:21;;;;;;;5.83;5.23;;;;;;;18.75;44.56;101543.14;;;;-53
2022/01/16 11:09:20;;;;;;;8.59;5.28;;;;;;;18.78;44.48;101552.17;;;;-52
2022/01/16 11:12:20;;;;;;;8.38;5.48;;;;;;;18.79;44.47;101544.91;;;;-52
2022/01/16 11:15:20;;;;;;;5.95;5.27;;;;;;;18.81;44.44;101545.53;;;;-54
2022/01/16 11:18:20;;;;;;;8.08;5.23;;;;;;;18.81;44.45;101543.90;;;;-54
2022/01/16 11:21:31;;;;;;;6.14;5.19;;;;;;;18.83;44.45;101543.06;;;;-54
2022/01/16 11:24:35;;;;;;;7.99;5.59;;;;;;;18.84;44.42;101538.77;;;;-54
2022/01/16 11:27:20;;;;;;;7.90;5.51;;;;;;;18.85;44.38;101543.69;;;;-54
2022/01/16 11:30:20;;;;;;;6.63;5.69;;;;;;;18.87;44.37;101546.17;;;;-54
2022/01/16 11:33:20;;;;;;;6.17;5.53;;;;;;;18.88;44.33;101551.58;;;;-54
2022/01/16 11:36:20;;;;;;;6.06;5.03;;;;;;;18.90;44.31;101543.88;;;;-54
2022/01/16 11:39:20;;;;;;;6.28;5.33;;;;;;;18.92;44.29;101543.28;;;;-54
2022/01/16 11:42:26;;;;;;;6.35;5.36;;;;;;;18.93;44.31;101539.99;;;;-54
2022/01/16 11:45:20;;;;;;;5.61;4.99;;;;;;;18.94;44.36;101537.08;;;;-54
2022/01/16 11:48:20;;;;;;;5.59;5.01;;;;;;;18.95;44.31;101541.92;;;;-56
2022/01/16 11:51:20;;;;;;;5.49;4.99;;;;;;;18.97;44.31;101534.34;;;;-56
2022/01/16 11:54:20;;;;;;;6.67;5.47;;;;;;;18.99;44.27;101540.08;;;;-55
2022/01/16 11:57:20;;;;;;;6.24;5.11;;;;;;;19.01;44.31;101539.92;;;;-55
2022/01/16 12:00:20;;;;;;;5.57;4.91;;;;;;;19.02;44.29;101539.23;;;;-56
2022/01/16 12:03:20;;;;;;;6.65;4.92;;;;;;;19.03;44.32;101537.25;;;;-56
2022/01/16 12:06:20;;;;;;;5.05;4.55;;;;;;;19.05;44.22;101545.19;;;;-55
2022/01/16 12:09:20;;;;;;;6.02;4.78;;;;;;;19.05;44.29;101555.14;;;;-55
2022/01/16 12:12:20;;;;;;;5.83;4.87;;;;;;;19.06;44.25;101549.91;;;;-55
2022/01/16 12:15:21;;;;;;;5.27;4.76;;;;;;;19.06;44.31;101549.02;;;;-55
2022/01/16 12:18:20;;;;;;;5.35;4.85;;;;;;;19.06;44.30;101553.80;;;;-54
2022/01/16 12:21:20;;;;;;;6.07;4.91;;;;;;;19.07;44.25;101545.70;;;;-54
2022/01/16 12:24:20;;;;;;;6.01;4.83;;;;;;;19.07;44.31;101548.00;;;;-54
2022/01/16 12:27:20;;;;;;;5.39;4.84;;;;;;;19.08;44.18;101541.27;;;;-54
2022/01/16 12:30:20;;;;;;;5.45;4.85;;;;;;;19.09;44.25;101544.28;;;;-52
2022/01/16 12:33:20;;;;;;;6.14;5.04;;;;;;;19.09;44.28;101540.13;;;;-52
2022/01/16 12:36:22;;;;;;;5.20;4.70;;;;;;;19.10;44.24;101533.68;;;;-52
2022/01/16 12:39:20;;;;;;;6.17;4.77;;;;;;;19.12;44.21;101541.86;;;;-52
2022/01/16 12:42:20;;;;;;;5.29;4.79;;;;;;;19.13;44.21;101543.90;;;;-52
2022/01/16 12:45:20;;;;;;;5.15;4.65;;;;;;;19.14;44.19;101537.76;;;;-53
2022/01/16 12:48:20;;;;;;;5.07;4.57;;;;;;;19.15;44.24;101540.33;;;;-54
2022/01/16 12:51:20;;;;;;;5.45;4.86;;;;;;;19.17;44.26;101536.20;;;;-52
2022/01/16 12:54:20;;;;;;;4.96;4.39;;;;;;;19.17;44.21;101538.80;;;;-53
2022/01/16 12:57:20;;;;;;;5.79;4.76;;;;;;;19.19;44.21;101531.70;;;;-52
2022/01/16 13:00:20;;;;;;;4.95;4.45;;;;;;;19.21;44.22;101535.32;;;;-54
2022/01/16 13:03:20;;;;;;;5.27;4.61;;;;;;;19.22;44.12;101529.27;;;;-54
2022/01/16 13:06:20;;;;;;;5.11;4.61;;;;;;;19.22;44.21;101531.95;;;;-54
2022/01/16 13:09:20;;;;;;;5.22;4.59;;;;;;;19.24;44.19;101532.48;;;;-52
2022/01/16 13:12:21;;;;;;;4.97;4.40;;;;;;;19.25;44.21;101533.16;;;;-52
2022/01/16 13:15:20;;;;;;;4.87;4.37;;;;;;;19.26;44.11;101524.13;;;;-52
2022/01/16 13:18:20;;;;;;;5.14;4.64;;;;;;;19.28;44.21;101519.91;;;;-52
2022/01/16 13:21:20;;;;;;;5.81;4.75;;;;;;;19.29;44.15;101516.83;;;;-55
2022/01/16 13:24:20;;;;;;;4.75;4.29;;;;;;;19.29;44.16;101518.95;;;;-55
2022/01/16 13:27:20;;;;;;;5.09;4.59;;;;;;;19.32;44.15;101522.86;;;;-52
2022/01/16 13:30:24;;;;;;;4.99;4.49;;;;;;;19.32;44.20;101521.23;;;;-52
2022/01/16 13:33:20;;;;;;;4.81;4.35;;;;;;;19.34;44.14;101510.23;;;;-54
2022/01/16 13:36:20;;;;;;;6.80;4.62;;;;;;;19.43;44.07;101500.83;;;;-50
2022/01/16 13:39:20;;;;;;;6.73;4.64;;;;;;;19.43;44.26;101502.62;;;;-60
2022/01/16 13:42:22;;;;;;;5.32;4.69;;;;;;;19.47;44.31;101513.77;;;;-61
2022/01/16 13:45:20;;;;;;;5.27;4.77;;;;;;;19.51;44.18;101526.22;;;;-56
2022/01/16 13:48:20;;;;;;;4.94;4.44;;;;;;;19.55;44.21;101538.27;;;;-53
2022/01/16 13:51:20;;;;;;;5.41;4.58;;;;;;;19.56;44.37;101528.92;;;;-53
2022/01/16 13:54:20;;;;;;;8.03;6.61;;;;;;;19.51;44.25;101533.05;;;;-57
2022/01/16 13:57:20;;;;;;;8.25;6.43;;;;;;;19.52;43.47;101530.94;;;;-50
2022/01/16 14:00:21;;;;;;;8.93;6.15;;;;;;;19.54;43.61;101536.11;;;;-55
2022/01/16 14:03:20;;;;;;;7.45;5.98;;;;;;;19.56;43.66;101533.64;;;;-61
2022/01/16 14:06:20;;;;;;;6.39;5.77;;;;;;;19.57;43.45;101534.41;;;;-51
2022/01/16 14:09:21;;;;;;;7.65;5.77;;;;;;;19.60;43.48;101527.55;;;;-58
2022/01/16 14:12:20;;;;;;;6.71;5.78;;;;;;;19.62;43.44;101505.81;;;;-59
2022/01/16 14:15:20;;;;;;;9.25;5.40;;;;;;;19.63;43.55;101516.42;;;;-52
2022/01/16 14:18:38;;;;;;;5.93;5.18;;;;;;;19.66;43.46;101547.38;;;;-52
2022/01/16 14:24:20;;;;;;;6.33;5.43;;;;;;;19.69;43.76;101566.55;;;;-58
2022/01/16 14:27:20;;;;;;;7.01;5.39;;;;;;;19.69;43.58;101576.87;;;;-59
2022/01/16 14:30:20;;;;;;;6.09;5.30;;;;;;;19.68;43.58;101591.02;;;;-59
2022/01/16 14:33:20;;;;;;;6.74;5.07;;;;;;;19.68;43.59;101602.81;;;;-53
2022/01/16 14:36:20;;;;;;;7.17;5.21;;;;;;;19.68;43.55;101606.46;;;;-53
2022/01/16 14:39:22;;;;;;;5.64;4.98;;;;;;;19.69;43.52;101610.38;;;;-58
2022/01/16 14:42:20;;;;;;;7.44;5.48;;;;;;;19.68;43.55;101614.52;;;;-54
2022/01/16 14:45:21;;;;;;;6.01;5.41;;;;;;;19.69;43.37;101614.28;;;;-54
2022/01/16 14:48:20;;;;;;;7.11;5.20;;;;;;;19.68;43.40;101613.45;;;;-53
2022/01/16 14:51:20;;;;;;;5.93;5.33;;;;;;;19.68;43.49;101605.41;;;;-53
2022/01/16 14:54:20;;;;;;;5.95;5.02;;;;;;;19.68;43.45;101628.19;;;;-53
2022/01/16 14:57:20;;;;;;;5.75;5.10;;;;;;;19.67;43.43;101625.98;;;;-53
2022/01/16 15:00:20;;;;;;;6.13;5.47;;;;;;;19.67;43.34;101638.50;;;;-53
2022/01/16 15:03:20;;;;;;;6.17;5.46;;;;;;;19.67;43.34;101634.73;;;;-53
2022/01/16 15:06:20;;;;;;;5.76;5.15;;;;;;;19.68;43.38;101635.09;;;;-53
2022/01/16 15:09:20;;;;;;;5.86;5.23;;;;;;;19.67;43.33;101640.54;;;;-53
2022/01/16 15:12:20;;;;;;;5.72;5.09;;;;;;;19.67;43.25;101641.52;;;;-53
2022/01/16 15:15:21;;;;;;;5.79;5.18;;;;;;;19.69;43.34;101634.95;;;;-53
2022/01/16 15:18:21;;;;;;;7.91;5.06;;;;;;;19.73;43.68;101636.05;;;;-51
2022/01/16 15:21:26;;;;;;;7.09;5.27;;;;;;;19.76;43.93;101629.22;;;;-53
2022/01/16 15:24:20;;;;;;;5.95;5.18;;;;;;;19.78;43.98;101623.01;;;;-52
2022/01/16 15:27:20;;;;;;;6.30;5.20;;;;;;;19.81;43.86;101627.95;;;;-53
2022/01/16 15:30:20;;;;;;;8.01;4.91;;;;;;;19.83;43.97;101619.53;;;;-56
2022/01/16 15:33:20;;;;;;;7.47;5.03;;;;;;;19.84;44.06;101622.91;;;;-52
2022/01/16 15:36:20;;;;;;;5.47;4.92;;;;;;;19.87;44.05;101649.24;;;;-52
2022/01/16 15:39:22;;;;;;;5.69;5.11;;;;;;;19.90;44.10;101655.52;;;;-54
2022/01/16 15:42:20;;;;;;;5.23;4.73;;;;;;;19.93;44.09;101655.00;;;;-58
2022/01/16 15:45:20;;;;;;;5.79;4.91;;;;;;;19.97;44.02;101658.43;;;;-53
2022/01/16 15:48:20;;;;;;;5.99;4.81;;;;;;;19.94;43.79;101665.91;;;;-53
2022/01/16 15:51:20;;;;;;;5.62;5.02;;;;;;;19.91;43.72;101670.33;;;;-51
2022/01/16 15:54:20;;;;;;;5.23;4.73;;;;;;;19.91;43.74;101673.17;;;;-50
2022/01/16 15:57:20;;;;;;;5.73;4.67;;;;;;;19.90;43.71;101681.55;;;;-53
2022/01/16 16:00:20;;;;;;;6.14;4.73;;;;;;;19.89;43.74;101674.67;;;;-56
2022/01/16 16:03:20;;;;;;;5.53;4.85;;;;;;;19.89;43.76;101677.03;;;;-53
2022/01/16 16:06:20;;;;;;;5.42;4.63;;;;;;;19.88;43.76;101674.59;;;;-54
2022/01/16 16:09:20;;;;;;;5.07;4.57;;;;;;;19.88;43.77;101677.03;;;;-52
2022/01/16 16:12:20;;;;;;;5.13;4.63;;;;;;;19.89;43.77;101678.41;;;;-56
2022/01/16 16:15:20;;;;;;;6.28;4.69;;;;;;;19.89;43.79;101687.69;;;;-51
2022/01/16 16:18:20;;;;;;;5.13;4.63;;;;;;;19.89;43.82;101696.08;;;;-52
2022/01/16 16:21:20;;;;;;;5.09;4.53;;;;;;;19.91;43.74;101697.09;;;;-60
2022/01/16 16:24:20;;;;;;;6.41;4.69;;;;;;;19.94;44.16;101700.36;;;;-58
2022/01/16 16:27:20;;;;;;;6.49;4.65;;;;;;;19.98;44.13;101700.10;;;;-51
2022/01/16 16:30:20;;;;;;;5.26;4.76;;;;;;;20.00;44.08;101712.28;;;;-53
2022/01/16 16:33:22;;;;;;;5.56;4.79;;;;;;;20.04;44.21;101714.66;;;;-57
2022/01/16 16:36:20;;;;;;;5.71;4.70;;;;;;;20.07;44.14;101714.50;;;;-55
2022/01/16 16:39:20;;;;;;;5.61;4.70;;;;;;;20.08;44.14;101710.93;;;;-53
2022/01/16 16:42:20;;;;;;;5.23;4.72;;;;;;;20.13;44.30;101711.69;;;;-52
2022/01/16 16:45:20;;;;;;;5.13;4.53;;;;;;;20.14;44.27;101721.17;;;;-49
2022/01/16 16:48:20;;;;;;;6.54;4.78;;;;;;;20.15;44.25;101719.95;;;;-49
2022/01/16 16:51:20;;;;;;;5.71;5.09;;;;;;;20.15;44.22;101728.73;;;;-49
2022/01/16 16:54:20;;;;;;;4.97;4.50;;;;;;;20.15;44.03;101741.52;;;;-48
2022/01/16 16:57:20;;;;;;;5.51;4.93;;;;;;;20.15;43.90;101735.66;;;;-47
2022/01/16 17:00:21;;;;;;;5.58;4.86;;;;;;;20.16;44.23;101734.56;;;;-56
2022/01/16 17:03:20;;;;;;;6.18;5.31;;;;;;;20.17;44.11;101733.79;;;;-56
2022/01/16 17:06:20;;;;;;;5.90;5.25;;;;;;;20.19;44.02;101723.22;;;;-58
2022/01/16 17:09:20;;;;;;;6.48;5.69;;;;;;;20.20;44.10;101716.50;;;;-60
2022/01/16 17:12:36;;;;;;;7.54;6.14;;;;;;;20.22;43.58;101714.11;;;;-45
2022/01/16 17:15:20;;;;;;;8.41;5.21;;;;;;;20.25;44.05;101716.20;;;;-51
2022/01/16 17:18:22;;;;;;;6.25;5.40;;;;;;;20.26;44.10;101722.34;;;;-51
2022/01/16 17:21:20;;;;;;;6.91;5.14;;;;;;;20.29;44.12;101727.94;;;;-50
2022/01/16 17:24:20;;;;;;;8.51;5.21;;;;;;;20.32;44.22;101724.44;;;;-61